sensor_id;sensor_type;location;lat;lon;timestamp;P1;durP1;ratioP1;P2;durP2;ratioP2
3643;SDS011;1838;50.742;7.158;2023-04-03T00:00:30;2.80;;;2.03;;
3643;SDS011;1838;50.742;7.158;2023-04-03T00:02:56;6.67;;;2.07;;
3643;SDS011;1838;50.742;7.158;2023-04-03T00:05:22;4.83;;;2.10;;
3643;SDS011;1838;50.742;7.158;2023-04-03T00:07:48;4.00;;;2.40;;
3643;SDS011;1838;50.742;7.158;2023-04-03T00:10:14;2.63;;;2.10;;
3643;SDS011;1838;50.742;7.158;2023-04-03T00:12:40;5.07;;;2.40;;
3643;SDS011;1838;50.742;7.158;2023-04-03T00:15:06;5.90;;;2.10;;
3643;SDS011;1838;50.742;7.158;2023-04-03T00:17:32;3.73;;;2.43;;
3643;SDS011;1838;50.742;7.158;2023-04-03T00:19:57;4.10;;;3.00;;
3643;SDS011;1838;50.742;7.158;2023-04-03T00:22:23;3.60;;;3.00;;
3643;SDS011;1838;50.742;7.158;2023-04-03T00:24:49;4.50;;;2.80;;
3643;SDS011;1838;50.742;7.158;2023-04-03T00:27:14;5.50;;;2.33;;
3643;SDS011;1838;50.742;7.158;2023-04-03T00:29:40;3.20;;;2.30;;
3643;SDS011;1838;50.742;7.158;2023-04-03T00:32:06;4.10;;;2.53;;
3643;SDS011;1838;50.742;7.158;2023-04-03T00:34:31;4.70;;;2.60;;
3643;SDS011;1838;50.742;7.158;2023-04-03T00:36:57;4.10;;;2.00;;
3643;SDS011;1838;50.742;7.158;2023-04-03T00:39:22;10.93;;;3.00;;
3643;SDS011;1838;50.742;7.158;2023-04-03T00:41:48;3.70;;;2.77;;
3643;SDS011;1838;50.742;7.158;2023-04-03T00:46:57;2.90;;;2.40;;
3643;SDS011;1838;50.742;7.158;2023-04-03T00:49:23;3.63;;;3.00;;
3643;SDS011;1838;50.742;7.158;2023-04-03T00:51:49;4.60;;;2.57;;
3643;SDS011;1838;50.742;7.158;2023-04-03T00:54:15;5.13;;;2.20;;
3643;SDS011;1838;50.742;7.158;2023-04-03T00:56:41;6.00;;;2.40;;
3643;SDS011;1838;50.742;7.158;2023-04-03T00:59:10;3.30;;;2.50;;
3643;SDS011;1838;50.742;7.158;2023-04-03T01:01:39;4.20;;;2.43;;
3643;SDS011;1838;50.742;7.158;2023-04-03T01:04:05;2.60;;;2.10;;
3643;SDS011;1838;50.742;7.158;2023-04-03T01:06:51;3.43;;;1.90;;
3643;SDS011;1838;50.742;7.158;2023-04-03T01:09:17;6.10;;;2.80;;
3643;SDS011;1838;50.742;7.158;2023-04-03T01:11:42;4.27;;;2.40;;
3643;SDS011;1838;50.742;7.158;2023-04-03T01:14:08;3.03;;;2.17;;
3643;SDS011;1838;50.742;7.158;2023-04-03T01:16:33;11.63;;;2.27;;
3643;SDS011;1838;50.742;7.158;2023-04-03T01:19:00;3.70;;;2.50;;
3643;SDS011;1838;50.742;7.158;2023-04-03T01:24:35;4.03;;;2.63;;
3643;SDS011;1838;50.742;7.158;2023-04-03T01:27:04;5.00;;;2.77;;
3643;SDS011;1838;50.742;7.158;2023-04-03T01:29:31;3.20;;;2.03;;
3643;SDS011;1838;50.742;7.158;2023-04-03T01:31:58;3.33;;;2.73;;
3643;SDS011;1838;50.742;7.158;2023-04-03T01:34:25;5.27;;;2.50;;
3643;SDS011;1838;50.742;7.158;2023-04-03T01:36:51;9.37;;;2.70;;
3643;SDS011;1838;50.742;7.158;2023-04-03T01:39:17;4.90;;;2.50;;
3643;SDS011;1838;50.742;7.158;2023-04-03T01:41:43;3.83;;;2.20;;
3643;SDS011;1838;50.742;7.158;2023-04-03T01:44:09;4.20;;;2.30;;
3643;SDS011;1838;50.742;7.158;2023-04-03T01:46:34;3.50;;;2.30;;
3643;SDS011;1838;50.742;7.158;2023-04-03T01:49:00;11.53;;;2.50;;
3643;SDS011;1838;50.742;7.158;2023-04-03T01:51:26;4.17;;;2.27;;
3643;SDS011;1838;50.742;7.158;2023-04-03T01:53:52;2.87;;;2.40;;
3643;SDS011;1838;50.742;7.158;2023-04-03T01:56:17;6.50;;;2.20;;
3643;SDS011;1838;50.742;7.158;2023-04-03T01:58:43;2.40;;;2.17;;
3643;SDS011;1838;50.742;7.158;2023-04-03T02:01:08;7.67;;;2.63;;
3643;SDS011;1838;50.742;7.158;2023-04-03T02:03:34;4.83;;;2.50;;
3643;SDS011;1838;50.742;7.158;2023-04-03T02:05:59;4.30;;;2.40;;
3643;SDS011;1838;50.742;7.158;2023-04-03T02:08:25;5.23;;;2.47;;
3643;SDS011;1838;50.742;7.158;2023-04-03T02:10:50;3.37;;;2.43;;
3643;SDS011;1838;50.742;7.158;2023-04-03T02:13:17;2.60;;;2.03;;
3643;SDS011;1838;50.742;7.158;2023-04-03T02:15:42;4.53;;;3.10;;
3643;SDS011;1838;50.742;7.158;2023-04-03T02:18:08;3.00;;;2.30;;
3643;SDS011;1838;50.742;7.158;2023-04-03T02:20:34;3.70;;;2.67;;
3643;SDS011;1838;50.742;7.158;2023-04-03T02:23:00;3.13;;;2.20;;
3643;SDS011;1838;50.742;7.158;2023-04-03T02:25:25;6.47;;;2.33;;
3643;SDS011;1838;50.742;7.158;2023-04-03T02:27:51;3.30;;;2.43;;
3643;SDS011;1838;50.742;7.158;2023-04-03T02:30:17;4.83;;;1.93;;
3643;SDS011;1838;50.742;7.158;2023-04-03T02:32:42;2.70;;;2.20;;
3643;SDS011;1838;50.742;7.158;2023-04-03T02:35:08;6.20;;;2.63;;
3643;SDS011;1838;50.742;7.158;2023-04-03T02:37:34;3.07;;;2.30;;
3643;SDS011;1838;50.742;7.158;2023-04-03T02:40:00;4.00;;;2.10;;
3643;SDS011;1838;50.742;7.158;2023-04-03T02:42:26;6.00;;;2.80;;
3643;SDS011;1838;50.742;7.158;2023-04-03T02:44:51;4.13;;;3.00;;
3643;SDS011;1838;50.742;7.158;2023-04-03T02:47:17;4.47;;;3.10;;
3643;SDS011;1838;50.742;7.158;2023-04-03T02:49:42;4.03;;;2.43;;
3643;SDS011;1838;50.742;7.158;2023-04-03T02:52:11;2.93;;;2.03;;
3643;SDS011;1838;50.742;7.158;2023-04-03T02:54:37;8.70;;;2.43;;
3643;SDS011;1838;50.742;7.158;2023-04-03T02:57:03;3.60;;;2.23;;
3643;SDS011;1838;50.742;7.158;2023-04-03T02:59:28;5.60;;;2.80;;
3643;SDS011;1838;50.742;7.158;2023-04-03T03:01:54;4.00;;;2.50;;
3643;SDS011;1838;50.742;7.158;2023-04-03T03:04:20;6.17;;;3.23;;
3643;SDS011;1838;50.742;7.158;2023-04-03T03:06:46;3.27;;;2.07;;
3643;SDS011;1838;50.742;7.158;2023-04-03T03:09:12;3.00;;;2.10;;
3643;SDS011;1838;50.742;7.158;2023-04-03T03:11:38;2.67;;;2.20;;
3643;SDS011;1838;50.742;7.158;2023-04-03T03:14:04;3.83;;;2.10;;
3643;SDS011;1838;50.742;7.158;2023-04-03T03:16:29;3.03;;;2.13;;
3643;SDS011;1838;50.742;7.158;2023-04-03T03:18:55;4.53;;;2.80;;
3643;SDS011;1838;50.742;7.158;2023-04-03T03:21:20;2.97;;;2.37;;
3643;SDS011;1838;50.742;7.158;2023-04-03T03:23:46;4.13;;;2.60;;
3643;SDS011;1838;50.742;7.158;2023-04-03T03:26:12;3.60;;;2.50;;
3643;SDS011;1838;50.742;7.158;2023-04-03T03:28:38;4.23;;;2.70;;
3643;SDS011;1838;50.742;7.158;2023-04-03T03:31:04;4.77;;;2.50;;
3643;SDS011;1838;50.742;7.158;2023-04-03T03:33:30;4.43;;;2.40;;
3643;SDS011;1838;50.742;7.158;2023-04-03T03:35:56;3.23;;;2.20;;
3643;SDS011;1838;50.742;7.158;2023-04-03T03:38:22;7.23;;;2.67;;
3643;SDS011;1838;50.742;7.158;2023-04-03T03:40:48;5.03;;;3.10;;
3643;SDS011;1838;50.742;7.158;2023-04-03T03:43:15;4.90;;;2.93;;
3643;SDS011;1838;50.742;7.158;2023-04-03T03:45:40;4.00;;;2.40;;
3643;SDS011;1838;50.742;7.158;2023-04-03T03:48:06;10.30;;;3.37;;
3643;SDS011;1838;50.742;7.158;2023-04-03T03:50:31;5.10;;;3.17;;
3643;SDS011;1838;50.742;7.158;2023-04-03T03:52:57;7.77;;;2.70;;
3643;SDS011;1838;50.742;7.158;2023-04-03T03:55:23;8.30;;;2.97;;
3643;SDS011;1838;50.742;7.158;2023-04-03T03:57:48;6.07;;;3.40;;
3643;SDS011;1838;50.742;7.158;2023-04-03T04:00:14;8.40;;;2.90;;
3643;SDS011;1838;50.742;7.158;2023-04-03T04:02:40;4.53;;;2.57;;
3643;SDS011;1838;50.742;7.158;2023-04-03T04:05:06;7.67;;;3.33;;
3643;SDS011;1838;50.742;7.158;2023-04-03T04:07:31;4.50;;;3.10;;
3643;SDS011;1838;50.742;7.158;2023-04-03T04:09:57;4.97;;;2.90;;
3643;SDS011;1838;50.742;7.158;2023-04-03T04:12:22;8.10;;;2.90;;
3643;SDS011;1838;50.742;7.158;2023-04-03T04:14:48;3.80;;;3.10;;
3643;SDS011;1838;50.742;7.158;2023-04-03T04:17:14;4.03;;;2.80;;
3643;SDS011;1838;50.742;7.158;2023-04-03T04:19:40;5.90;;;3.37;;
3643;SDS011;1838;50.742;7.158;2023-04-03T04:22:05;4.60;;;3.20;;
3643;SDS011;1838;50.742;7.158;2023-04-03T04:24:31;6.83;;;3.60;;
3643;SDS011;1838;50.742;7.158;2023-04-03T04:26:57;4.90;;;3.20;;
3643;SDS011;1838;50.742;7.158;2023-04-03T04:29:22;6.20;;;4.10;;
3643;SDS011;1838;50.742;7.158;2023-04-03T04:31:48;6.30;;;3.50;;
3643;SDS011;1838;50.742;7.158;2023-04-03T04:34:13;6.20;;;3.87;;
3643;SDS011;1838;50.742;7.158;2023-04-03T04:36:39;4.87;;;3.70;;
3643;SDS011;1838;50.742;7.158;2023-04-03T04:39:05;7.30;;;3.40;;
3643;SDS011;1838;50.742;7.158;2023-04-03T04:41:31;5.77;;;3.73;;
3643;SDS011;1838;50.742;7.158;2023-04-03T04:43:57;5.30;;;3.67;;
3643;SDS011;1838;50.742;7.158;2023-04-03T04:46:22;6.63;;;4.43;;
3643;SDS011;1838;50.742;7.158;2023-04-03T04:48:48;11.60;;;2.97;;
3643;SDS011;1838;50.742;7.158;2023-04-03T04:51:14;4.87;;;3.80;;
3643;SDS011;1838;50.742;7.158;2023-04-03T04:53:40;7.73;;;3.90;;
3643;SDS011;1838;50.742;7.158;2023-04-03T04:56:06;5.40;;;3.43;;
3643;SDS011;1838;50.742;7.158;2023-04-03T04:58:32;6.50;;;4.10;;
3643;SDS011;1838;50.742;7.158;2023-04-03T05:00:58;5.57;;;3.37;;
3643;SDS011;1838;50.742;7.158;2023-04-03T05:03:28;6.37;;;4.07;;
3643;SDS011;1838;50.742;7.158;2023-04-03T05:05:53;4.90;;;3.20;;
3643;SDS011;1838;50.742;7.158;2023-04-03T05:08:19;4.83;;;3.60;;
3643;SDS011;1838;50.742;7.158;2023-04-03T05:10:45;4.67;;;3.60;;
3643;SDS011;1838;50.742;7.158;2023-04-03T05:13:11;7.33;;;3.80;;
3643;SDS011;1838;50.742;7.158;2023-04-03T05:15:37;6.60;;;4.10;;
3643;SDS011;1838;50.742;7.158;2023-04-03T05:18:02;4.90;;;3.87;;
3643;SDS011;1838;50.742;7.158;2023-04-03T05:20:28;4.00;;;3.50;;
3643;SDS011;1838;50.742;7.158;2023-04-03T05:22:54;7.40;;;4.00;;
3643;SDS011;1838;50.742;7.158;2023-04-03T05:25:19;6.30;;;3.40;;
3643;SDS011;1838;50.742;7.158;2023-04-03T05:27:45;6.10;;;3.43;;
3643;SDS011;1838;50.742;7.158;2023-04-03T05:30:10;7.10;;;3.40;;
3643;SDS011;1838;50.742;7.158;2023-04-03T05:32:36;12.10;;;4.23;;
3643;SDS011;1838;50.742;7.158;2023-04-03T05:35:02;5.60;;;3.90;;
3643;SDS011;1838;50.742;7.158;2023-04-03T05:37:28;5.87;;;3.00;;
3643;SDS011;1838;50.742;7.158;2023-04-03T05:39:53;6.10;;;3.40;;
3643;SDS011;1838;50.742;7.158;2023-04-03T05:42:19;4.80;;;3.40;;
3643;SDS011;1838;50.742;7.158;2023-04-03T05:44:44;4.47;;;3.10;;
3643;SDS011;1838;50.742;7.158;2023-04-03T05:47:12;3.80;;;2.43;;
3643;SDS011;1838;50.742;7.158;2023-04-03T05:49:37;6.57;;;3.70;;
3643;SDS011;1838;50.742;7.158;2023-04-03T05:52:06;6.17;;;3.23;;
3643;SDS011;1838;50.742;7.158;2023-04-03T05:54:55;12.80;;;3.95;;
3643;SDS011;1838;50.742;7.158;2023-04-03T05:57:21;4.23;;;2.70;;
3643;SDS011;1838;50.742;7.158;2023-04-03T05:59:49;3.83;;;2.80;;
3643;SDS011;1838;50.742;7.158;2023-04-03T06:02:16;7.50;;;2.70;;
3643;SDS011;1838;50.742;7.158;2023-04-03T06:04:46;2.50;;;2.20;;
3643;SDS011;1838;50.742;7.158;2023-04-03T06:07:22;5.80;;;3.10;;
3643;SDS011;1838;50.742;7.158;2023-04-03T06:09:53;5.20;;;3.30;;
3643;SDS011;1838;50.742;7.158;2023-04-03T06:12:20;2.93;;;2.57;;
3643;SDS011;1838;50.742;7.158;2023-04-03T06:14:46;4.63;;;2.87;;
3643;SDS011;1838;50.742;7.158;2023-04-03T06:17:12;5.30;;;3.37;;
3643;SDS011;1838;50.742;7.158;2023-04-03T06:19:39;10.57;;;3.30;;
3643;SDS011;1838;50.742;7.158;2023-04-03T06:22:05;4.20;;;2.60;;
3643;SDS011;1838;50.742;7.158;2023-04-03T06:24:31;6.53;;;2.70;;
3643;SDS011;1838;50.742;7.158;2023-04-03T06:26:57;4.17;;;3.00;;
3643;SDS011;1838;50.742;7.158;2023-04-03T06:29:24;3.97;;;2.57;;
3643;SDS011;1838;50.742;7.158;2023-04-03T06:31:50;3.20;;;2.50;;
3643;SDS011;1838;50.742;7.158;2023-04-03T06:34:16;4.77;;;2.70;;
3643;SDS011;1838;50.742;7.158;2023-04-03T06:36:42;3.10;;;2.17;;
3643;SDS011;1838;50.742;7.158;2023-04-03T06:39:13;7.83;;;2.37;;
3643;SDS011;1838;50.742;7.158;2023-04-03T06:41:41;4.23;;;2.20;;
3643;SDS011;1838;50.742;7.158;2023-04-03T06:44:07;9.07;;;2.50;;
3643;SDS011;1838;50.742;7.158;2023-04-03T06:46:35;5.93;;;2.77;;
3643;SDS011;1838;50.742;7.158;2023-04-03T06:49:03;5.07;;;2.23;;
3643;SDS011;1838;50.742;7.158;2023-04-03T06:51:29;8.00;;;2.30;;
3643;SDS011;1838;50.742;7.158;2023-04-03T06:53:56;3.83;;;2.50;;
3643;SDS011;1838;50.742;7.158;2023-04-03T06:56:23;7.87;;;1.90;;
3643;SDS011;1838;50.742;7.158;2023-04-03T06:58:49;6.20;;;1.73;;
3643;SDS011;1838;50.742;7.158;2023-04-03T07:01:16;8.80;;;2.23;;
3643;SDS011;1838;50.742;7.158;2023-04-03T07:03:44;5.27;;;2.17;;
3643;SDS011;1838;50.742;7.158;2023-04-03T07:06:11;6.00;;;2.53;;
3643;SDS011;1838;50.742;7.158;2023-04-03T07:08:38;8.13;;;2.17;;
3643;SDS011;1838;50.742;7.158;2023-04-03T07:11:05;4.57;;;1.63;;
3643;SDS011;1838;50.742;7.158;2023-04-03T07:13:31;3.30;;;1.57;;
3643;SDS011;1838;50.742;7.158;2023-04-03T07:15:57;9.17;;;1.77;;
3643;SDS011;1838;50.742;7.158;2023-04-03T07:18:23;5.73;;;1.43;;
3643;SDS011;1838;50.742;7.158;2023-04-03T07:20:49;5.17;;;1.83;;
3643;SDS011;1838;50.742;7.158;2023-04-03T07:23:15;4.00;;;1.60;;
3643;SDS011;1838;50.742;7.158;2023-04-03T07:25:44;5.13;;;1.80;;
3643;SDS011;1838;50.742;7.158;2023-04-03T07:28:11;4.03;;;1.73;;
3643;SDS011;1838;50.742;7.158;2023-04-03T07:30:43;3.07;;;1.50;;
3643;SDS011;1838;50.742;7.158;2023-04-03T07:33:13;4.37;;;1.93;;
3643;SDS011;1838;50.742;7.158;2023-04-03T07:35:40;7.53;;;1.90;;
3643;SDS011;1838;50.742;7.158;2023-04-03T07:38:07;2.73;;;1.60;;
3643;SDS011;1838;50.742;7.158;2023-04-03T07:40:32;3.80;;;1.93;;
3643;SDS011;1838;50.742;7.158;2023-04-03T07:42:58;3.97;;;1.70;;
3643;SDS011;1838;50.742;7.158;2023-04-03T07:45:24;5.53;;;1.27;;
3643;SDS011;1838;50.742;7.158;2023-04-03T07:47:50;3.30;;;1.50;;
3643;SDS011;1838;50.742;7.158;2023-04-03T07:50:16;3.00;;;1.67;;
3643;SDS011;1838;50.742;7.158;2023-04-03T07:52:42;2.47;;;1.50;;
3643;SDS011;1838;50.742;7.158;2023-04-03T07:55:08;2.87;;;1.80;;
3643;SDS011;1838;50.742;7.158;2023-04-03T07:57:34;2.47;;;1.60;;
3643;SDS011;1838;50.742;7.158;2023-04-03T08:00:00;4.10;;;2.30;;
3643;SDS011;1838;50.742;7.158;2023-04-03T08:02:26;6.70;;;2.00;;
3643;SDS011;1838;50.742;7.158;2023-04-03T08:04:51;5.07;;;2.90;;
3643;SDS011;1838;50.742;7.158;2023-04-03T08:07:17;5.50;;;2.20;;
3643;SDS011;1838;50.742;7.158;2023-04-03T08:09:43;3.47;;;1.70;;
3643;SDS011;1838;50.742;7.158;2023-04-03T08:12:09;3.80;;;2.30;;
3643;SDS011;1838;50.742;7.158;2023-04-03T08:14:36;3.17;;;1.63;;
3643;SDS011;1838;50.742;7.158;2023-04-03T08:17:02;5.67;;;1.47;;
3643;SDS011;1838;50.742;7.158;2023-04-03T08:19:30;3.63;;;1.70;;
3643;SDS011;1838;50.742;7.158;2023-04-03T08:21:56;2.63;;;1.70;;
3643;SDS011;1838;50.742;7.158;2023-04-03T08:24:23;3.60;;;1.80;;
3643;SDS011;1838;50.742;7.158;2023-04-03T08:26:49;3.13;;;1.77;;
3643;SDS011;1838;50.742;7.158;2023-04-03T08:29:15;4.03;;;2.53;;
3643;SDS011;1838;50.742;7.158;2023-04-03T08:31:40;4.83;;;2.10;;
3643;SDS011;1838;50.742;7.158;2023-04-03T08:34:06;4.30;;;1.63;;
3643;SDS011;1838;50.742;7.158;2023-04-03T08:36:31;2.37;;;1.43;;
3643;SDS011;1838;50.742;7.158;2023-04-03T08:38:57;3.90;;;1.77;;
3643;SDS011;1838;50.742;7.158;2023-04-03T08:41:31;3.80;;;1.87;;
3643;SDS011;1838;50.742;7.158;2023-04-03T08:49:30;5.80;;;1.50;;
3643;SDS011;1838;50.742;7.158;2023-04-03T08:52:12;8.63;;;2.70;;
3643;SDS011;1838;50.742;7.158;2023-04-03T08:54:52;4.00;;;1.33;;
3643;SDS011;1838;50.742;7.158;2023-04-03T08:57:26;9.00;;;1.80;;
3643;SDS011;1838;50.742;7.158;2023-04-03T08:59:55;4.60;;;1.83;;
3643;SDS011;1838;50.742;7.158;2023-04-03T09:02:27;4.10;;;1.37;;
3643;SDS011;1838;50.742;7.158;2023-04-03T09:04:54;3.10;;;1.63;;
3643;SDS011;1838;50.742;7.158;2023-04-03T09:07:23;4.40;;;1.50;;
3643;SDS011;1838;50.742;7.158;2023-04-03T09:09:57;5.53;;;1.90;;
3643;SDS011;1838;50.742;7.158;2023-04-03T09:12:33;2.83;;;1.80;;
3643;SDS011;1838;50.742;7.158;2023-04-03T09:15:19;3.00;;;1.50;;
3643;SDS011;1838;50.742;7.158;2023-04-03T09:17:57;3.60;;;1.90;;
3643;SDS011;1838;50.742;7.158;2023-04-03T09:23:44;7.40;;;2.70;;
3643;SDS011;1838;50.742;7.158;2023-04-03T09:26:16;2.87;;;1.47;;
3643;SDS011;1838;50.742;7.158;2023-04-03T09:29:05;3.90;;;1.80;;
3643;SDS011;1838;50.742;7.158;2023-04-03T09:31:36;5.33;;;1.37;;
3643;SDS011;1838;50.742;7.158;2023-04-03T09:34:23;4.80;;;1.60;;
3643;SDS011;1838;50.742;7.158;2023-04-03T09:36:55;6.53;;;2.47;;
3643;SDS011;1838;50.742;7.158;2023-04-03T09:39:24;4.90;;;1.57;;
3643;SDS011;1838;50.742;7.158;2023-04-03T09:42:02;4.07;;;1.33;;
3643;SDS011;1838;50.742;7.158;2023-04-03T09:44:34;6.80;;;3.03;;
3643;SDS011;1838;50.742;7.158;2023-04-03T09:52:39;5.20;;;1.60;;
3643;SDS011;1838;50.742;7.158;2023-04-03T09:55:25;2.00;;;1.23;;
3643;SDS011;1838;50.742;7.158;2023-04-03T09:57:57;4.53;;;1.57;;
3643;SDS011;1838;50.742;7.158;2023-04-03T10:00:25;2.40;;;1.30;;
3643;SDS011;1838;50.742;7.158;2023-04-03T10:02:55;4.60;;;2.27;;
3643;SDS011;1838;50.742;7.158;2023-04-03T10:05:26;7.80;;;1.67;;
3643;SDS011;1838;50.742;7.158;2023-04-03T10:10:42;5.27;;;1.80;;
3643;SDS011;1838;50.742;7.158;2023-04-03T10:15:43;3.07;;;1.40;;
3643;SDS011;1838;50.742;7.158;2023-04-03T10:21:05;3.57;;;1.40;;
3643;SDS011;1838;50.742;7.158;2023-04-03T10:23:49;3.70;;;1.40;;
3643;SDS011;1838;50.742;7.158;2023-04-03T10:26:32;2.07;;;1.53;;
3643;SDS011;1838;50.742;7.158;2023-04-03T10:35:15;2.77;;;1.30;;
3643;SDS011;1838;50.742;7.158;2023-04-03T10:40:24;3.87;;;1.07;;
3643;SDS011;1838;50.742;7.158;2023-04-03T10:43:01;3.40;;;1.20;;
3643;SDS011;1838;50.742;7.158;2023-04-03T10:46:00;3.73;;;1.63;;
3643;SDS011;1838;50.742;7.158;2023-04-03T10:48:38;5.00;;;1.17;;
3643;SDS011;1838;50.742;7.158;2023-04-03T10:53:55;2.10;;;1.17;;
3643;SDS011;1838;50.742;7.158;2023-04-03T10:59:21;2.07;;;1.10;;
3643;SDS011;1838;50.742;7.158;2023-04-03T11:01:59;3.30;;;1.40;;
3643;SDS011;1838;50.742;7.158;2023-04-03T11:04:30;6.00;;;1.50;;
3643;SDS011;1838;50.742;7.158;2023-04-03T11:07:04;4.77;;;1.47;;
3643;SDS011;1838;50.742;7.158;2023-04-03T11:09:37;1.80;;;1.10;;
3643;SDS011;1838;50.742;7.158;2023-04-03T11:14:53;4.17;;;1.30;;
3643;SDS011;1838;50.742;7.158;2023-04-03T11:17:23;4.53;;;1.30;;
3643;SDS011;1838;50.742;7.158;2023-04-03T11:22:45;3.30;;;1.00;;
3643;SDS011;1838;50.742;7.158;2023-04-03T11:25:22;4.57;;;1.10;;
3643;SDS011;1838;50.742;7.158;2023-04-03T11:30:19;2.43;;;1.60;;
3643;SDS011;1838;50.742;7.158;2023-04-03T11:35:37;1.80;;;1.17;;
3643;SDS011;1838;50.742;7.158;2023-04-03T11:38:10;1.90;;;1.20;;
3643;SDS011;1838;50.742;7.158;2023-04-03T11:40:44;3.57;;;1.10;;
3643;SDS011;1838;50.742;7.158;2023-04-03T11:43:30;2.23;;;1.30;;
3643;SDS011;1838;50.742;7.158;2023-04-03T11:46:01;2.50;;;1.07;;
3643;SDS011;1838;50.742;7.158;2023-04-03T11:53:41;3.00;;;1.37;;
3643;SDS011;1838;50.742;7.158;2023-04-03T12:01:43;1.73;;;1.13;;
3643;SDS011;1838;50.742;7.158;2023-04-03T12:04:10;2.90;;;1.10;;
3643;SDS011;1838;50.742;7.158;2023-04-03T12:09:19;2.10;;;0.90;;
3643;SDS011;1838;50.742;7.158;2023-04-03T12:11:48;4.70;;;1.40;;
3643;SDS011;1838;50.742;7.158;2023-04-03T12:14:14;1.80;;;1.00;;
3643;SDS011;1838;50.742;7.158;2023-04-03T12:16:42;6.93;;;1.50;;
3643;SDS011;1838;50.742;7.158;2023-04-03T12:27:00;2.33;;;1.07;;
3643;SDS011;1838;50.742;7.158;2023-04-03T12:46:26;8.93;;;2.10;;
3643;SDS011;1838;50.742;7.158;2023-04-03T12:51:55;2.83;;;1.37;;
3643;SDS011;1838;50.742;7.158;2023-04-03T12:54:22;2.63;;;1.30;;
3643;SDS011;1838;50.742;7.158;2023-04-03T12:57:10;1.87;;;1.30;;
3643;SDS011;1838;50.742;7.158;2023-04-03T12:59:46;2.20;;;1.13;;
3643;SDS011;1838;50.742;7.158;2023-04-03T13:02:28;5.10;;;1.50;;
3643;SDS011;1838;50.742;7.158;2023-04-03T13:05:04;5.50;;;1.30;;
3643;SDS011;1838;50.742;7.158;2023-04-03T13:07:35;3.27;;;1.60;;
3643;SDS011;1838;50.742;7.158;2023-04-03T13:12:57;3.90;;;1.50;;
3643;SDS011;1838;50.742;7.158;2023-04-03T13:15:27;2.87;;;1.40;;
3643;SDS011;1838;50.742;7.158;2023-04-03T13:17:55;2.60;;;1.43;;
3643;SDS011;1838;50.742;7.158;2023-04-03T13:20:26;2.80;;;1.27;;
3643;SDS011;1838;50.742;7.158;2023-04-03T13:25:28;4.30;;;1.43;;
3643;SDS011;1838;50.742;7.158;2023-04-03T13:27:58;3.07;;;1.40;;
3643;SDS011;1838;50.742;7.158;2023-04-03T13:30:33;4.60;;;1.50;;
3643;SDS011;1838;50.742;7.158;2023-04-03T13:33:02;2.60;;;1.80;;
3643;SDS011;1838;50.742;7.158;2023-04-03T13:35:38;2.00;;;1.30;;
3643;SDS011;1838;50.742;7.158;2023-04-03T13:38:19;2.70;;;1.63;;
3643;SDS011;1838;50.742;7.158;2023-04-03T13:40:49;4.00;;;1.63;;
3643;SDS011;1838;50.742;7.158;2023-04-03T13:43:26;6.90;;;1.60;;
3643;SDS011;1838;50.742;7.158;2023-04-03T13:48:41;3.13;;;1.70;;
3643;SDS011;1838;50.742;7.158;2023-04-03T13:53:47;3.50;;;1.43;;
3643;SDS011;1838;50.742;7.158;2023-04-03T13:56:37;2.70;;;1.73;;
3643;SDS011;1838;50.742;7.158;2023-04-03T14:04:27;4.77;;;1.57;;
3643;SDS011;1838;50.742;7.158;2023-04-03T14:06:55;2.70;;;1.27;;
3643;SDS011;1838;50.742;7.158;2023-04-03T14:09:21;2.20;;;1.50;;
3643;SDS011;1838;50.742;7.158;2023-04-03T14:11:49;6.90;;;1.60;;
3643;SDS011;1838;50.742;7.158;2023-04-03T14:14:19;3.60;;;1.40;;
3643;SDS011;1838;50.742;7.158;2023-04-03T14:16:50;2.70;;;1.40;;
3643;SDS011;1838;50.742;7.158;2023-04-03T14:19:26;3.97;;;1.70;;
3643;SDS011;1838;50.742;7.158;2023-04-03T14:21:54;2.73;;;1.50;;
3643;SDS011;1838;50.742;7.158;2023-04-03T14:24:21;3.07;;;1.50;;
3643;SDS011;1838;50.742;7.158;2023-04-03T14:26:52;3.17;;;1.20;;
3643;SDS011;1838;50.742;7.158;2023-04-03T14:29:21;5.37;;;2.00;;
3643;SDS011;1838;50.742;7.158;2023-04-03T14:31:48;2.43;;;1.53;;
3643;SDS011;1838;50.742;7.158;2023-04-03T14:34:15;3.00;;;1.37;;
3643;SDS011;1838;50.742;7.158;2023-04-03T14:36:41;5.27;;;1.80;;
3643;SDS011;1838;50.742;7.158;2023-04-03T14:39:10;5.60;;;1.60;;
3643;SDS011;1838;50.742;7.158;2023-04-03T14:41:42;3.40;;;1.83;;
3643;SDS011;1838;50.742;7.158;2023-04-03T14:44:09;4.27;;;1.40;;
3643;SDS011;1838;50.742;7.158;2023-04-03T14:46:35;1.90;;;1.27;;
3643;SDS011;1838;50.742;7.158;2023-04-03T14:49:05;2.40;;;1.50;;
3643;SDS011;1838;50.742;7.158;2023-04-03T14:51:44;3.07;;;1.10;;
3643;SDS011;1838;50.742;7.158;2023-04-03T14:54:13;2.80;;;1.43;;
3643;SDS011;1838;50.742;7.158;2023-04-03T14:56:41;3.87;;;1.60;;
3643;SDS011;1838;50.742;7.158;2023-04-03T14:59:11;5.73;;;1.77;;
3643;SDS011;1838;50.742;7.158;2023-04-03T15:01:38;2.23;;;1.50;;
3643;SDS011;1838;50.742;7.158;2023-04-03T15:04:08;2.93;;;1.87;;
3643;SDS011;1838;50.742;7.158;2023-04-03T15:06:36;4.33;;;1.70;;
3643;SDS011;1838;50.742;7.158;2023-04-03T15:09:02;4.77;;;1.57;;
3643;SDS011;1838;50.742;7.158;2023-04-03T15:11:28;3.77;;;1.47;;
3643;SDS011;1838;50.742;7.158;2023-04-03T15:13:54;3.00;;;1.87;;
3643;SDS011;1838;50.742;7.158;2023-04-03T15:16:19;3.77;;;2.13;;
3643;SDS011;1838;50.742;7.158;2023-04-03T15:18:45;2.63;;;1.50;;
3643;SDS011;1838;50.742;7.158;2023-04-03T15:21:12;6.60;;;2.17;;
3643;SDS011;1838;50.742;7.158;2023-04-03T15:23:38;5.13;;;1.70;;
3643;SDS011;1838;50.742;7.158;2023-04-03T15:26:03;2.83;;;1.20;;
3643;SDS011;1838;50.742;7.158;2023-04-03T15:28:31;4.53;;;1.30;;
3643;SDS011;1838;50.742;7.158;2023-04-03T15:31:00;2.27;;;1.40;;
3643;SDS011;1838;50.742;7.158;2023-04-03T15:33:26;7.30;;;1.70;;
3643;SDS011;1838;50.742;7.158;2023-04-03T15:35:52;5.50;;;1.70;;
3643;SDS011;1838;50.742;7.158;2023-04-03T15:38:17;2.40;;;1.57;;
3643;SDS011;1838;50.742;7.158;2023-04-03T15:40:43;2.87;;;1.60;;
3643;SDS011;1838;50.742;7.158;2023-04-03T15:43:09;4.53;;;1.43;;
3643;SDS011;1838;50.742;7.158;2023-04-03T15:45:35;3.73;;;1.60;;
3643;SDS011;1838;50.742;7.158;2023-04-03T15:48:02;3.23;;;1.50;;
3643;SDS011;1838;50.742;7.158;2023-04-03T15:50:29;2.47;;;1.10;;
3643;SDS011;1838;50.742;7.158;2023-04-03T15:52:55;4.87;;;1.13;;
3643;SDS011;1838;50.742;7.158;2023-04-03T15:55:23;3.07;;;1.40;;
3643;SDS011;1838;50.742;7.158;2023-04-03T15:57:50;2.53;;;1.10;;
3643;SDS011;1838;50.742;7.158;2023-04-03T16:00:20;4.90;;;1.30;;
3643;SDS011;1838;50.742;7.158;2023-04-03T16:02:47;3.77;;;1.30;;
3643;SDS011;1838;50.742;7.158;2023-04-03T16:05:15;3.17;;;1.30;;
3643;SDS011;1838;50.742;7.158;2023-04-03T16:07:43;3.13;;;1.50;;
3643;SDS011;1838;50.742;7.158;2023-04-03T16:10:10;3.23;;;1.10;;
3643;SDS011;1838;50.742;7.158;2023-04-03T16:12:36;4.33;;;1.30;;
3643;SDS011;1838;50.742;7.158;2023-04-03T16:15:03;4.63;;;1.87;;
3643;SDS011;1838;50.742;7.158;2023-04-03T16:17:29;2.97;;;1.07;;
3643;SDS011;1838;50.742;7.158;2023-04-03T16:19:57;2.90;;;1.30;;
3643;SDS011;1838;50.742;7.158;2023-04-03T16:22:23;3.87;;;1.10;;
3643;SDS011;1838;50.742;7.158;2023-04-03T16:24:51;2.33;;;1.03;;
3643;SDS011;1838;50.742;7.158;2023-04-03T16:27:17;2.67;;;1.43;;
3643;SDS011;1838;50.742;7.158;2023-04-03T16:29:42;2.63;;;1.20;;
3643;SDS011;1838;50.742;7.158;2023-04-03T16:32:08;3.90;;;1.30;;
3643;SDS011;1838;50.742;7.158;2023-04-03T16:34:33;3.83;;;1.60;;
3643;SDS011;1838;50.742;7.158;2023-04-03T16:36:59;3.67;;;1.60;;
3643;SDS011;1838;50.742;7.158;2023-04-03T16:39:25;3.07;;;1.30;;
3643;SDS011;1838;50.742;7.158;2023-04-03T16:41:50;3.93;;;1.33;;
3643;SDS011;1838;50.742;7.158;2023-04-03T16:44:16;3.33;;;1.27;;
3643;SDS011;1838;50.742;7.158;2023-04-03T16:46:41;8.20;;;1.67;;
3643;SDS011;1838;50.742;7.158;2023-04-03T16:49:07;5.00;;;1.00;;
3643;SDS011;1838;50.742;7.158;2023-04-03T16:51:32;5.90;;;1.40;;
3643;SDS011;1838;50.742;7.158;2023-04-03T16:53:58;4.50;;;1.40;;
3643;SDS011;1838;50.742;7.158;2023-04-03T16:56:24;3.93;;;1.63;;
3643;SDS011;1838;50.742;7.158;2023-04-03T16:58:51;10.30;;;1.80;;
3643;SDS011;1838;50.742;7.158;2023-04-03T17:01:18;4.50;;;1.30;;
3643;SDS011;1838;50.742;7.158;2023-04-03T17:03:45;2.97;;;1.07;;
3643;SDS011;1838;50.742;7.158;2023-04-03T17:06:11;4.80;;;1.30;;
3643;SDS011;1838;50.742;7.158;2023-04-03T17:08:41;3.00;;;1.27;;
3643;SDS011;1838;50.742;7.158;2023-04-03T17:11:07;4.57;;;1.50;;